Time;durP1;ratioP1;P1;durP2;ratioP2;P2;SDS_P1;SDS_P2;PMS_P1;PMS_P2;Temp;Humidity;BMP_temperature;BMP_pressure;BME280_temperature;BME280_humidity;BME280_pressure;Samples;Min_cycle;Max_cycle;Signal;HPM_P1;HPM_P2
2023/01/15 00:02:07;;;;;;;83.37;22.42;;;;;;;1.45;79.42;100830.56;1816947;79;21181;-87
2023/01/15 00:05:14;;;;;;;78.35;21.62;;;;;;;1.55;79.11;100830.30;1812157;78;21239;-86
2023/01/15 00:08:22;;;;;;;68.67;20.32;;;;;;;1.60;78.75;100834.92;1814513;78;21216;-86
2023/01/15 00:11:27;;;;;;;68.70;18.73;;;;;;;1.50;78.66;100825.22;1814914;78;21884;-86
2023/01/15 00:14:35;;;;;;;78.28;22.75;;;;;;;1.49;78.88;100828.03;1813625;78;21400;-85
2023/01/15 00:17:46;;;;;;;86.10;23.15;;;;;;;1.52;79.05;100822.45;1801583;79;21200;-86
2023/01/15 00:20:52;;;;;;;82.20;22.75;;;;;;;1.78;78.36;100823.31;1811300;78;21222;-86
2023/01/15 00:27:38;;;;;;;75.30;22.77;;;;;;;1.63;78.54;100825.25;1814872;78;21746;-85
2023/01/15 00:30:51;;;;;;;71.28;21.62;;;;;;;1.35;79.40;100820.03;1811575;78;21282;-85
2023/01/15 00:33:56;;;;;;;81.53;22.48;;;;;;;1.37;79.82;100819.46;1808930;78;21262;-86
2023/01/15 00:37:03;;;;;;;61.98;20.32;;;;;;;1.51;79.45;100822.94;1804197;78;21282;-85
2023/01/15 00:40:10;;;;;;;84.35;22.90;;;;;;;1.40;79.59;100816.53;1817181;78;21259;-85
2023/01/15 00:43:19;;;;;;;84.87;23.92;;;;;;;1.38;79.68;100816.66;1813372;78;21762;-85
2023/01/15 00:46:27;;;;;;;67.63;20.53;;;;;;;1.42;79.22;100816.83;1807490;78;21331;-85
2023/01/15 00:49:37;;;;;;;80.92;23.67;;;;;;;1.39;79.50;100822.41;1815917;79;21259;-85
2023/01/15 00:52:47;;;;;;;61.25;20.70;;;;;;;1.38;79.49;100821.19;1812736;78;21338;-86
2023/01/15 00:55:53;;;;;;;83.58;23.22;;;;;;;1.33;80.00;100824.19;1806363;75;21204;-85
2023/01/15 00:59:00;;;;;;;78.70;22.60;;;;;;;1.30;80.69;100824.88;1811431;78;21307;-85
2023/01/15 01:02:10;;;;;;;64.53;22.07;;;;;;;1.49;80.10;100818.59;1815720;79;21239;-85
2023/01/15 01:05:23;;;;;;;70.70;22.50;;;;;;;1.51;79.91;100819.38;1806919;78;21243;-85
2023/01/15 01:08:40;;;;;;;63.52;21.93;;;;;;;1.48;80.16;100818.23;1807686;78;21187;-85
2023/01/15 01:11:50;;;;;;;83.37;22.80;;;;;;;1.67;79.77;100810.59;1781926;79;21576;-85
2023/01/15 01:15:02;;;;;;;68.00;22.45;;;;;;;1.59;79.85;100812.94;1815631;79;21191;-85
2023/01/15 01:18:09;;;;;;;61.75;19.20;;;;;;;1.49;80.53;100805.12;1810977;79;21212;-84
2023/01/15 01:21:16;;;;;;;56.73;20.00;;;;;;;1.53;79.69;100799.41;1815858;78;21754;-85
2023/01/15 01:24:28;;;;;;;76.90;25.20;;;;;;;1.58;79.54;100796.88;1807696;78;21770;-85
2023/01/15 01:27:34;;;;;;;75.35;21.82;;;;;;;1.72;78.86;100795.43;1809855;78;21195;-86
2023/01/15 01:30:41;;;;;;;73.97;21.52;;;;;;;1.86;78.46;100801.20;1807812;78;21184;-85
2023/01/15 01:33:51;;;;;;;56.50;19.45;;;;;;;2.00;77.80;100794.34;1817008;79;21306;-85
2023/01/15 01:36:57;;;;;;;77.35;21.77;;;;;;;1.75;78.00;100798.78;1811530;78;21215;-87
2023/01/15 01:40:03;;;;;;;63.95;20.20;;;;;;;1.85;78.02;100796.30;1804230;78;21239;-85
2023/01/15 01:43:10;;;;;;;73.67;20.08;;;;;;;1.99;77.46;100798.02;1789143;78;21212;-85
2023/01/15 01:46:20;;;;;;;63.75;20.85;;;;;;;2.00;77.35;100799.73;1816565;79;21212;-85
2023/01/15 01:49:25;;;;;;;65.32;21.00;;;;;;;2.02;77.28;100793.73;1806686;78;21223;-87
2023/01/15 01:52:40;;;;;;;66.53;21.17;;;;;;;2.10;77.27;100798.09;1814307;78;21211;-87
2023/01/15 01:55:47;;;;;;;71.05;20.72;;;;;;;2.21;76.86;100792.80;1812227;78;21270;-87
2023/01/15 01:58:55;;;;;;;77.00;20.77;;;;;;;2.29;76.22;100795.79;1816400;79;21183;-87
2023/01/15 02:02:02;;;;;;;62.15;23.42;;;;;;;2.22;76.29;100794.52;1780213;77;21271;-86
2023/01/15 02:05:12;;;;;;;77.05;21.10;;;;;;;2.23;75.83;100795.39;1812875;78;21287;-86
2023/01/15 02:08:21;;;;;;;74.15;21.85;;;;;;;2.12;76.50;100786.72;1812448;78;21207;-86
2023/01/15 02:11:29;;;;;;;86.25;24.00;;;;;;;2.10;77.22;100779.70;1810132;78;21208;-86
2023/01/15 02:15:00;;;;;;;84.05;23.67;;;;;;;2.02;77.61;100781.58;1809098;78;21210;-85
2023/01/15 02:18:38;;;;;;;74.35;21.62;;;;;;;2.39;76.42;100781.12;1810154;78;21215;-85
2023/01/15 02:22:21;;;;;;;68.25;22.75;;;;;;;2.21;76.54;100789.22;1808280;78;21204;-86
2023/01/15 02:25:58;;;;;;;81.47;24.07;;;;;;;1.99;77.32;100786.73;1805314;78;21184;-85
2023/01/15 02:29:04;;;;;;;90.40;23.77;;;;;;;2.20;76.75;100783.45;1806538;78;21208;-85
2023/01/15 02:32:16;;;;;;;69.37;23.42;;;;;;;1.97;76.95;100783.75;1816580;78;21212;-86
2023/01/15 02:35:28;;;;;;;;;;;;;;;2.12;76.16;100775.92;1814700;78;21231;-86
2023/01/15 02:38:40;;;;;;;65.70;22.45;;;;;;;2.14;75.70;100780.72;1784150;78;20623;-85
2023/01/15 02:41:52;;;;;;;81.85;24.12;;;;;;;2.02;75.90;100768.09;1781400;80;21297;-86
2023/01/15 02:45:00;;;;;;;59.75;18.82;;;;;;;2.15;75.13;100771.64;1748789;81;21224;-86
2023/01/15 02:48:18;;;;;;;72.92;20.05;;;;;;;2.17;74.69;100783.20;1751470;81;21276;-86
2023/01/15 02:51:37;;;;;;;55.03;18.62;;;;;;;1.94;74.93;100794.30;1753346;81;21243;-85
2023/01/15 02:54:57;;;;;;;59.38;21.95;;;;;;;1.91;74.69;100784.20;1759783;81;21176;-86
2023/01/15 02:58:07;;;;;;;69.35;21.15;;;;;;;1.65;75.69;100788.27;1754780;81;21808;-86
2023/01/15 03:01:26;;;;;;;80.97;22.60;;;;;;;1.79;75.78;100785.46;1721591;81;21220;-86
2023/01/15 03:04:42;;;;;;;71.45;22.40;;;;;;;1.95;75.59;100787.92;1751701;81;21157;-85
2023/01/15 03:08:07;;;;;;;80.00;22.90;;;;;;;2.02;75.11;100785.17;1743250;81;21266;-86
2023/01/15 03:11:17;;;;;;;74.03;23.02;;;;;;;1.85;75.59;100786.00;1746462;81;21684;-87
2023/01/15 03:14:30;;;;;;;58.65;19.30;;;;;;;1.88;76.15;100787.97;1771133;81;21189;-87
2023/01/15 03:17:43;;;;;;;65.08;20.80;;;;;;;1.94;75.59;100792.09;1769431;80;21216;-86
2023/01/15 03:20:52;;;;;;;61.13;19.75;;;;;;;1.71;75.69;100783.78;1771298;80;21264;-86
2023/01/15 03:24:01;;;;;;;58.78;16.93;;;;;;;1.52;76.19;100782.00;1771928;80;21217;-86
2023/01/15 03:27:08;;;;;;;56.10;18.67;;;;;;;1.74;75.67;100779.53;1762363;78;21225;-86
2023/01/15 03:30:25;;;;;;;74.97;20.53;;;;;;;1.45;76.35;100782.03;1770803;80;21197;-86
2023/01/15 03:33:37;;;;;;;45.98;18.80;;;;;;;1.65;76.05;100784.22;1769383;80;21232;-86
2023/01/15 03:36:44;;;;;;;66.22;19.73;;;;;;;1.28;76.55;100780.03;1771081;80;21276;-86
2023/01/15 03:39:52;;;;;;;65.90;19.73;;;;;;;1.21;77.08;100778.72;1764507;80;21220;-86
2023/01/15 03:46:46;;;;;;;64.30;19.77;;;;;;;0.90;78.82;100781.78;1741013;81;21225;-85
2023/01/15 03:50:03;;;;;;;72.37;22.75;;;;;;;1.15;78.56;100768.36;1750223;81;21259;-86
2023/01/15 03:53:30;;;;;;;60.40;20.40;;;;;;;1.32;78.00;100769.02;1757038;81;21231;-85
2023/01/15 03:56:56;;;;;;;53.05;17.65;;;;;;;1.23;78.00;100765.16;1756348;81;21208;-87
2023/01/15 04:00:05;;;;;;;65.10;21.70;;;;;;;1.08;79.09;100767.53;1774124;80;21195;-86
2023/01/15 04:03:14;;;;;;;62.03;19.82;;;;;;;1.31;79.19;100776.73;1780725;78;21259;-86
2023/01/15 04:06:21;;;;;;;65.70;24.10;;;;;;;1.15;79.11;100780.98;1772479;80;21829;-85
2023/01/15 04:09:28;;;;;;;59.23;20.20;;;;;;;1.23;78.96;100786.23;1764315;80;21350;-87
2023/01/15 04:12:38;;;;;;;59.85;20.12;;;;;;;1.24;78.71;100781.70;1780230;80;21311;-86
2023/01/15 04:15:46;;;;;;;64.90;21.25;;;;;;;1.25;78.68;100780.23;1781938;80;21342;-86
2023/01/15 04:18:53;;;;;;;80.13;22.73;;;;;;;1.18;78.89;100779.44;1779079;80;21790;-85
2023/01/15 04:22:02;;;;;;;68.52;22.87;;;;;;;1.13;79.04;100781.09;1777881;80;21244;-86
2023/01/15 04:25:13;;;;;;;69.97;19.45;;;;;;;1.25;79.04;100781.58;1754082;80;21211;-87
2023/01/15 04:28:19;;;;;;;56.75;20.75;;;;;;;1.27;78.85;100781.01;1767544;80;21825;-85
2023/01/15 04:31:26;;;;;;;72.65;22.20;;;;;;;1.46;78.40;100777.05;1782320;80;21220;-86
2023/01/15 04:34:35;;;;;;;77.65;24.27;;;;;;;1.33;78.24;100773.47;1783076;80;21355;-86
2023/01/15 04:37:46;;;;;;;55.88;20.17;;;;;;;1.20;78.81;100779.69;1777021;80;21188;-86
2023/01/15 04:44:20;;;;;;;76.62;22.98;;;;;;;0.93;79.92;100786.45;1775893;80;21228;-85
2023/01/15 04:47:26;;;;;;;66.50;21.57;;;;;;;1.24;79.54;100781.21;1784328;80;21850;-86
2023/01/15 04:50:34;;;;;;;74.97;22.32;;;;;;;1.22;79.31;100792.59;1779372;80;21208;-86
2023/01/15 04:53:40;;;;;;;65.60;27.07;;;;;;;1.50;78.40;100785.27;1758968;80;21261;-86
2023/01/15 04:56:49;;;;;;;54.30;20.32;;;;;;;1.35;78.59;100791.73;1776538;80;21172;-87
2023/01/15 04:59:55;;;;;;;61.68;20.23;;;;;;;1.33;78.49;100799.08;1745810;81;21275;-87
2023/01/15 05:03:04;;;;;;;61.13;22.13;;;;;;;1.42;78.36;100793.05;1748775;81;21228;-85
2023/01/15 05:06:13;;;;;;;70.85;23.42;;;;;;;1.30;78.65;100779.06;1743516;80;21347;-86
2023/01/15 05:09:19;;;;;;;60.63;19.52;;;;;;;1.37;78.40;100796.55;1742481;81;21199;-86
2023/01/15 05:12:26;;;;;;;67.22;21.35;;;;;;;1.41;78.30;100803.43;1743215;81;21327;-86
2023/01/15 05:15:31;;;;;;;69.82;21.55;;;;;;;1.19;78.93;100806.75;1749655;81;21267;-85
2023/01/15 05:18:38;;;;;;;61.13;21.12;;;;;;;1.15;79.07;100808.78;1740199;81;21240;-86
2023/01/15 05:21:48;;;;;;;78.05;22.20;;;;;;;1.20;78.83;100805.78;1748483;78;21342;-85
2023/01/15 05:24:56;;;;;;;66.87;21.40;;;;;;;1.14;79.00;100803.02;1755221;81;21224;-86
2023/01/15 05:28:04;;;;;;;57.30;21.07;;;;;;;1.08;79.17;100804.76;1738767;81;21879;-86
2023/01/15 05:31:15;;;;;;;65.72;23.35;;;;;;;1.04;79.18;100803.75;1743556;81;21334;-85
2023/01/15 05:34:22;;;;;;;71.85;22.58;;;;;;;1.12;79.04;100803.59;1739454;81;21177;-85
2023/01/15 05:37:29;;;;;;;57.20;21.25;;;;;;;1.30;78.91;100802.83;1732026;82;21228;-86
2023/01/15 05:40:35;;;;;;;58.78;21.42;;;;;;;1.24;79.08;100805.95;1743424;81;21223;-86
2023/01/15 05:43:44;;;;;;;74.75;23.92;;;;;;;1.16;78.86;100801.56;1735297;80;21215;-85
2023/01/15 05:46:51;;;;;;;85.70;23.77;;;;;;;1.08;79.52;100799.86;1752323;81;21330;-86
2023/01/15 05:49:59;;;;;;;75.32;22.20;;;;;;;1.14;79.46;100803.51;1754920;81;21370;-86
2023/01/15 05:53:07;;;;;;;87.08;22.48;;;;;;;1.17;79.45;100802.80;1780460;80;21267;-86
2023/01/15 05:56:18;;;;;;;66.62;22.07;;;;;;;1.28;79.14;100801.59;1742814;82;21267;-85
2023/01/15 05:59:28;;;;;;;69.82;21.12;;;;;;;1.61;78.31;100798.03;1743333;78;21534;-86
2023/01/15 06:02:34;;;;;;;63.65;22.27;;;;;;;1.64;77.90;100801.34;1781350;80;21287;-86
2023/01/15 06:05:44;;;;;;;69.17;19.60;;;;;;;1.47;78.24;100797.64;1778255;80;21259;-86
2023/01/15 06:08:51;;;;;;;65.10;20.72;;;;;;;1.54;77.89;100801.62;1783558;80;21283;-86
2023/01/15 06:11:58;;;;;;;55.98;19.50;;;;;;;1.36;78.28;100794.80;1784288;80;21224;-87
2023/01/15 06:15:04;;;;;;;66.17;19.52;;;;;;;1.65;77.60;100801.75;1784367;79;21270;-86
2023/01/15 06:18:10;;;;;;;53.17;19.67;;;;;;;1.53;77.66;100789.11;1780315;80;21782;-85
2023/01/15 06:21:18;;;;;;;60.52;20.17;;;;;;;1.61;77.69;100796.19;1775075;80;21247;-86
2023/01/15 06:24:23;;;;;;;54.38;17.70;;;;;;;1.55;77.64;100792.55;1779531;80;21212;-85
2023/01/15 06:27:34;;;;;;;53.50;18.00;;;;;;;1.52;78.31;100796.83;1774964;80;21322;-86
2023/01/15 06:30:42;;;;;;;48.28;19.17;;;;;;;1.65;77.92;100802.23;1749926;81;21271;-86
2023/01/15 06:33:48;;;;;;;67.32;21.20;;;;;;;1.37;78.53;100804.15;1720407;81;21276;-85
2023/01/15 06:36:54;;;;;;;72.17;22.15;;;;;;;1.57;78.20;100805.46;1736629;81;21738;-85
2023/01/15 06:39:59;;;;;;;64.12;20.23;;;;;;;1.56;78.17;100802.87;1717218;82;21818;-86
2023/01/15 06:49:56;;;;;;;65.37;21.68;;;;;;;1.85;77.45;100815.67;1754514;82;21212;-86
2023/01/15 06:53:04;;;;;;;58.52;19.95;;;;;;;1.98;76.83;100809.78;1752305;81;21310;-85
2023/01/15 06:56:13;;;;;;;52.10;19.95;;;;;;;2.15;76.46;100809.42;1736651;81;21310;-86
2023/01/15 06:59:20;;;;;;;52.20;17.32;;;;;;;2.05;76.78;100807.88;1738561;81;21211;-87
2023/01/15 07:02:30;;;;;;;63.08;20.80;;;;;;;2.14;76.36;100801.45;1752849;78;21185;-85
2023/01/15 07:05:40;;;;;;;55.65;21.10;;;;;;;1.93;77.05;100802.47;1743240;81;21229;-86
2023/01/15 07:08:45;;;;;;;58.15;21.20;;;;;;;2.19;76.49;100800.14;1740069;81;21224;-85
2023/01/15 07:11:55;;;;;;;85.20;23.42;;;;;;;2.03;76.67;100803.08;1751923;81;21283;-86
2023/01/15 07:15:02;;;;;;;79.53;22.55;;;;;;;1.66;77.93;100796.73;1735286;81;21834;-85
2023/01/15 07:18:13;;;;;;;53.60;20.02;;;;;;;1.96;77.39;100792.83;1749425;81;21951;-86
2023/01/15 07:21:20;;;;;;;64.20;21.07;;;;;;;1.91;77.31;100792.30;1749232;81;21200;-86
2023/01/15 07:24:27;;;;;;;83.22;23.27;;;;;;;1.83;77.61;100796.02;1749419;81;21870;-86
2023/01/15 07:27:34;;;;;;;75.85;20.17;;;;;;;2.05;77.30;100790.81;1781799;80;21165;-85
2023/01/15 07:30:43;;;;;;;83.37;25.10;;;;;;;1.87;77.55;100786.73;1750718;79;21207;-86
2023/01/15 07:33:50;;;;;;;62.85;22.22;;;;;;;1.95;77.45;100787.06;1736790;81;21205;-86
2023/01/15 07:36:58;;;;;;;80.32;23.18;;;;;;;2.05;77.69;100787.62;1772947;80;21351;-86
2023/01/15 07:40:04;;;;;;;69.00;24.40;;;;;;;1.98;77.66;100787.71;1782402;80;21200;-86
2023/01/15 07:50:04;;;;;;;93.42;25.45;;;;;;;2.33;77.37;100786.98;1768799;80;21220;-86
2023/01/15 07:53:10;;;;;;;61.60;22.00;;;;;;;2.51;76.58;100785.64;1738005;81;21329;-86
2023/01/15 07:56:17;;;;;;;72.87;21.48;;;;;;;2.97;74.83;100788.97;1748082;81;21284;-86
2023/01/15 07:59:23;;;;;;;62.13;19.12;;;;;;;2.54;75.75;100783.19;1775570;80;21357;-86
2023/01/15 08:02:31;;;;;;;68.78;20.72;;;;;;;2.51;75.95;100787.48;1751932;81;21220;-85
2023/01/15 08:05:38;;;;;;;59.85;20.75;;;;;;;2.16;77.22;100788.20;1762568;80;21319;-86
2023/01/15 08:08:45;;;;;;;70.42;22.90;;;;;;;2.37;76.83;100779.05;1736640;81;21779;-87
2023/01/15 08:15:19;;;;;;;64.45;21.10;;;;;;;2.18;77.61;100782.22;1740569;81;21203;-85
2023/01/15 08:18:27;;;;;;;71.95;23.22;;;;;;;2.18;78.25;100780.88;1740416;81;21300;-86
2023/01/15 08:21:34;;;;;;;56.77;20.52;;;;;;;2.05;78.24;100777.33;1743822;82;21791;-85
2023/01/15 08:24:33;;;;;;;64.70;20.23;;;;;;;2.39;77.64;100776.22;1739377;81;21322;-86
2023/01/15 08:27:39;;;;;;;53.13;20.02;;;;;;;2.29;78.13;100778.24;1739543;81;21809;-86
2023/01/15 08:30:45;;;;;;;55.17;21.68;;;;;;;2.32;78.04;100769.56;1736766;81;21795;-86
2023/01/15 08:33:53;;;;;;;63.50;21.50;;;;;;;2.80;76.70;100771.31;1736208;81;21830;-86
2023/01/15 08:37:00;;;;;;;67.40;21.87;;;;;;;2.64;77.08;100768.05;1750210;81;21259;-85
2023/01/15 08:40:07;;;;;;;54.90;21.00;;;;;;;2.96;75.76;100771.50;1741344;81;21255;-86
2023/01/15 08:43:13;;;;;;;69.32;22.15;;;;;;;2.86;75.68;100763.72;1745233;81;21275;-86
2023/01/15 08:46:20;;;;;;;84.05;23.47;;;;;;;2.83;75.86;100762.62;1738563;81;21298;-86
2023/01/15 08:49:28;;;;;;;73.45;22.37;;;;;;;2.45;77.40;100759.10;1740314;81;21224;-86
2023/01/15 08:52:34;;;;;;;69.05;21.23;;;;;;;2.67;76.77;100759.70;1769149;80;21239;-86
2023/01/15 08:55:40;;;;;;;78.20;22.70;;;;;;;3.06;75.71;100754.48;1741665;81;21565;-86
2023/01/15 08:58:47;;;;;;;65.75;21.17;;;;;;;3.00;75.75;100750.88;1761699;80;21928;-86
2023/01/15 09:01:54;;;;;;;75.72;21.17;;;;;;;2.90;75.78;100751.21;1783598;80;21268;-86
2023/01/15 09:05:01;;;;;;;56.60;20.05;;;;;;;2.94;75.57;100747.30;1780504;80;21833;-85
2023/01/15 09:08:09;;;;;;;57.15;19.90;;;;;;;2.93;76.03;100747.43;1778545;80;21323;-85
2023/01/15 09:11:19;;;;;;;53.92;19.30;;;;;;;2.94;75.33;100742.39;1759156;80;21216;-86
2023/01/15 09:14:26;;;;;;;61.18;17.35;;;;;;;2.86;75.29;100738.91;1782771;80;21937;-85
2023/01/15 09:17:34;;;;;;;64.12;22.00;;;;;;;2.64;76.24;100725.33;1777607;80;21283;-85
2023/01/15 09:20:48;;;;;;;53.52;17.87;;;;;;;2.59;76.53;100733.77;1757044;79;21274;-85
2023/01/15 09:23:55;;;;;;;54.60;18.77;;;;;;;2.81;76.11;100725.75;1778249;80;21300;-85
2023/01/15 09:27:02;;;;;;;43.02;16.35;;;;;;;3.07;75.48;100730.53;1783285;80;22047;-85
2023/01/15 09:30:08;;;;;;;50.05;17.00;;;;;;;2.75;76.39;100724.87;1774953;80;21207;-85
2023/01/15 09:33:16;;;;;;;59.18;20.48;;;;;;;2.59;76.82;100721.62;1754393;80;21161;-87
2023/01/15 09:36:31;;;;;;;47.40;17.55;;;;;;;2.52;77.28;100718.98;1735957;81;21802;-85
2023/01/15 09:39:38;;;;;;;46.73;18.37;;;;;;;2.65;77.08;100712.19;1740919;81;21228;-85
2023/01/15 09:42:55;;;;;;;51.60;18.62;;;;;;;2.81;76.41;100705.98;1745426;80;22533;-85
2023/01/15 09:46:07;;;;;;;48.65;17.10;;;;;;;2.89;76.68;100707.61;1753314;81;21216;-85
2023/01/15 09:49:56;;;;;;;53.85;19.60;;;;;;;2.86;76.65;100705.13;1747989;82;21169;-85
2023/01/15 09:53:22;;;;;;;69.25;30.82;;;;;;;2.75;77.03;100705.11;1736847;81;21238;-85
2023/01/15 09:56:31;;;;;;;52.80;20.05;;;;;;;2.79;77.07;100700.70;1755360;80;21269;-85
2023/01/15 09:59:47;;;;;;;43.52;20.08;;;;;;;2.72;77.30;100704.83;1758338;78;21241;-85
2023/01/15 10:03:36;;;;;;;59.77;24.02;;;;;;;2.67;77.72;100694.87;1758302;81;21206;-85
2023/01/15 10:06:57;;;;;;;53.58;23.20;;;;;;;2.59;78.21;100698.66;1739491;80;21398;-85
2023/01/15 10:10:10;;;;;;;;;;;;;;;2.54;78.50;100695.41;1744746;82;21242;-85
2023/01/15 10:13:43;;;;;;;56.70;23.47;;;;;;;2.58;78.26;100698.27;1741281;80;20264;-87
2023/01/15 10:16:50;;;;;;;120.40;44.67;;;;;;;2.87;77.65;100696.53;1736603;80;21836;-87
2023/01/15 10:19:58;;;;;;;100.05;34.35;;;;;;;2.83;77.37;100689.67;1751596;80;21180;-85
2023/01/15 10:23:20;;;;;;;67.45;27.27;;;;;;;2.81;77.45;100695.17;1749635;79;21284;-86
2023/01/15 10:26:48;;;;;;;65.08;27.27;;;;;;;2.89;77.17;100702.70;1752852;80;21746;-86
2023/01/15 10:30:00;;;;;;;62.43;23.25;;;;;;;2.84;77.75;100690.04;1751506;80;21234;-85
2023/01/15 10:33:10;;;;;;;68.47;28.55;;;;;;;2.93;77.75;100693.38;1752230;80;21187;-86
2023/01/15 10:36:46;;;;;;;87.12;30.10;;;;;;;3.19;76.83;100690.85;1754123;80;21146;-85
2023/01/15 10:40:48;;;;;;;77.55;32.95;;;;;;;3.09;76.96;100687.16;1751211;80;21231;-85
2023/01/15 10:44:10;;;;;;;82.15;34.55;;;;;;;3.38;75.85;100688.06;1750661;80;21192;-87
2023/01/15 10:47:20;;;;;;;138.50;48.75;;;;;;;3.35;76.30;100685.63;1753239;80;21204;-87
2023/01/15 10:50:31;;;;;;;126.47;41.98;;;;;;;2.99;77.19;100682.09;1750425;82;21287;-86
2023/01/15 10:54:05;;;;;;;62.73;24.82;;;;;;;2.96;77.46;100678.27;1750862;80;21183;-87
2023/01/15 10:57:27;;;;;;;81.78;35.70;;;;;;;3.17;76.76;100675.26;1754227;80;21173;-87
2023/01/15 11:00:33;;;;;;;75.03;28.07;;;;;;;3.21;76.54;100678.09;1754305;80;21243;-87
2023/01/15 11:03:46;;;;;;;58.42;24.47;;;;;;;3.16;76.73;100678.95;1751387;80;21215;-87
2023/01/15 11:06:51;;;;;;;62.90;23.95;;;;;;;3.02;76.75;100674.62;1754478;80;21215;-87
2023/01/15 11:09:58;;;;;;;63.95;26.70;;;;;;;3.26;76.42;100685.35;1752326;80;21219;-87
2023/01/15 11:20:39;;;;;;;72.50;27.95;;;;;;;3.07;76.83;100672.41;1749632;80;21245;-87
2023/01/15 11:23:45;;;;;;;70.83;27.55;;;;;;;3.09;77.24;100674.98;1749660;80;21749;-88
2023/01/15 11:26:58;;;;;;;64.53;29.30;;;;;;;3.11;77.16;100675.75;1754275;80;21254;-88
2023/01/15 11:30:07;;;;;;;62.48;24.85;;;;;;;3.20;77.39;100669.62;1751176;80;21272;-86
2023/01/15 11:33:32;;;;;;;58.63;24.12;;;;;;;3.16;77.24;100655.12;1753718;80;21263;-85
2023/01/15 11:36:40;;;;;;;53.30;23.85;;;;;;;3.17;77.05;100660.39;1754031;80;21204;-86
2023/01/15 11:39:47;;;;;;;71.10;34.27;;;;;;;2.93;77.51;100655.06;1751357;80;21211;-85
2023/01/15 11:53:39;;;;;;;69.80;28.67;;;;;;;3.02;77.92;100659.75;1753764;80;21215;-86
2023/01/15 11:56:47;;;;;;;64.82;29.32;;;;;;;2.93;77.93;100659.61;1754069;80;21196;-86
2023/01/15 11:59:57;;;;;;;65.28;28.20;;;;;;;2.95;78.28;100663.04;1751078;80;21788;-86
2023/01/15 12:03:12;;;;;;;48.35;23.50;;;;;;;3.00;78.28;100658.99;1750810;80;21271;-86
2023/01/15 12:06:20;;;;;;;86.30;38.00;;;;;;;3.01;78.01;100661.20;1748868;80;21678;-86
2023/01/15 12:09:52;;;;;;;55.33;25.48;;;;;;;3.03;77.97;100660.61;1752889;80;21267;-85
2023/01/15 12:13:09;;;;;;;69.85;29.48;;;;;;;3.08;78.10;100661.97;1749810;80;21198;-85
2023/01/15 12:16:40;;;;;;;67.08;24.80;;;;;;;3.19;77.43;100665.17;1750986;80;21211;-86
2023/01/15 12:19:58;;;;;;;;;;;;;;;3.14;77.30;100664.67;1750571;80;22498;-86
2023/01/15 12:23:22;;;;;;;72.35;27.65;;;;;;;3.09;77.66;100665.53;1740081;82;20217;-85
2023/01/15 12:26:35;;;;;;;66.85;27.95;;;;;;;3.08;77.29;100670.08;1735930;80;21218;-86
2023/01/15 12:30:01;;;;;;;76.62;28.75;;;;;;;3.16;76.89;100664.08;1752291;80;21727;-85
2023/01/15 12:33:29;;;;;;;84.72;32.05;;;;;;;3.38;76.45;100659.67;1754429;80;21818;-86
2023/01/15 12:37:02;;;;;;;66.10;26.77;;;;;;;3.53;75.04;100655.77;1781528;80;21220;-87
2023/01/15 12:40:24;;;;;;;65.55;27.35;;;;;;;3.26;76.48;100666.92;1749616;80;21237;-87
2023/01/15 12:47:00;;;;;;;62.53;26.85;;;;;;;3.41;75.28;100673.81;1771624;80;21216;-86
2023/01/15 12:50:32;;;;;;;61.65;28.73;;;;;;;3.24;75.92;100667.02;1745148;81;21891;-87
2023/01/15 12:53:58;;;;;;;86.57;31.00;;;;;;;3.48;75.24;100666.95;1754479;81;21220;-87
2023/01/15 12:57:09;;;;;;;73.75;25.85;;;;;;;3.20;76.00;100669.62;1758355;81;21235;-87
2023/01/15 13:00:22;;;;;;;79.03;31.25;;;;;;;3.31;75.55;100663.36;1754344;81;21810;-87
2023/01/15 13:03:34;;;;;;;60.23;28.70;;;;;;;3.28;75.48;100670.35;1747214;81;21215;-87
2023/01/15 13:06:40;;;;;;;72.95;33.65;;;;;;;3.24;76.07;100672.43;1758069;81;21291;-87
2023/01/15 13:09:54;;;;;;;78.90;29.10;;;;;;;3.37;75.25;100670.13;1745117;81;21291;-87
2023/01/15 13:13:04;;;;;;;76.50;30.68;;;;;;;3.15;76.15;100669.09;1754634;81;21303;-86
2023/01/15 13:16:21;;;;;;;63.87;27.95;;;;;;;3.17;75.74;100669.85;1755680;81;21295;-86
2023/01/15 13:19:51;;;;;;;74.05;35.30;;;;;;;3.11;75.93;100669.48;1781697;80;21302;-86
2023/01/15 13:23:17;;;;;;;66.05;28.20;;;;;;;2.88;76.33;100667.21;1741530;82;21761;-86
2023/01/15 13:27:12;;;;;;;69.27;31.20;;;;;;;2.98;76.13;100664.16;1750495;81;21228;-86
2023/01/15 13:30:28;;;;;;;92.60;41.45;;;;;;;3.00;76.15;100666.24;1751117;81;21810;-86
2023/01/15 13:33:50;;;;;;;76.82;31.80;;;;;;;3.17;75.75;100675.75;1734209;81;21200;-86
2023/01/15 13:36:56;;;;;;;72.08;29.37;;;;;;;3.08;75.90;100672.78;1754291;81;21218;-85
2023/01/15 13:40:13;;;;;;;79.77;30.80;;;;;;;3.04;76.03;100669.08;1753365;81;21243;-86
2023/01/15 13:43:25;;;;;;;93.07;37.15;;;;;;;2.83;76.55;100670.27;1753609;81;21770;-86
2023/01/15 13:46:32;;;;;;;71.55;32.85;;;;;;;2.87;76.85;100667.70;1759108;81;21220;-86
2023/01/15 13:49:48;;;;;;;69.53;27.37;;;;;;;2.76;76.87;100673.91;1741410;81;21224;-86
2023/01/15 13:52:54;;;;;;;67.78;28.20;;;;;;;2.68;77.30;100662.85;1757546;81;21362;-86
2023/01/15 13:56:14;;;;;;;65.15;25.57;;;;;;;2.78;77.64;100661.16;1759590;81;21204;-86
2023/01/15 13:59:43;;;;;;;65.28;26.95;;;;;;;3.21;76.04;100666.42;1755989;81;21770;-86
2023/01/15 14:02:54;;;;;;;83.65;31.85;;;;;;;3.14;75.67;100665.17;1723113;81;21802;-85
2023/01/15 14:06:06;;;;;;;74.32;32.73;;;;;;;2.66;77.55;100669.34;1756096;81;21207;-86
2023/01/15 14:09:11;;;;;;;84.70;31.90;;;;;;;2.69;77.45;100667.27;1750005;81;21224;-86
2023/01/15 14:12:48;;;;;;;82.10;30.77;;;;;;;2.68;77.87;100670.06;1759625;81;21762;-86
2023/01/15 14:16:22;;;;;;;86.25;34.13;;;;;;;2.78;77.46;100665.70;1731804;82;21763;-86
2023/01/15 14:20:00;;;;;;;83.65;32.35;;;;;;;2.69;77.83;100669.97;1749406;81;21389;-86
2023/01/15 14:23:18;;;;;;;94.75;36.75;;;;;;;2.58;78.59;100667.70;1755799;81;21259;-85
2023/01/15 14:26:32;;;;;;;81.32;31.30;;;;;;;2.67;78.12;100667.00;1744987;81;21316;-85
2023/01/15 14:30:01;;;;;;;80.92;28.02;;;;;;;2.41;79.31;100667.64;1739540;81;21265;-85
2023/01/15 14:33:26;;;;;;;90.15;33.80;;;;;;;2.38;79.49;100669.21;1753199;81;21203;-85
2023/01/15 14:36:36;;;;;;;76.35;32.48;;;;;;;2.46;79.91;100671.71;1746380;81;21152;-85
2023/01/15 14:39:57;;;;;;;108.55;34.30;;;;;;;2.35;80.24;100666.73;1743759;81;21228;-86
2023/01/15 14:43:05;;;;;;;87.25;31.05;;;;;;;2.52;79.83;100666.33;1738240;81;21216;-85
2023/01/15 14:46:37;;;;;;;114.28;34.85;;;;;;;2.72;78.98;100665.66;1746364;81;21248;-85
2023/01/15 14:49:52;;;;;;;131.55;36.23;;;;;;;2.61;79.45;100667.48;1743267;81;21280;-86
2023/01/15 14:53:04;;;;;;;90.15;33.95;;;;;;;2.55;79.46;100667.46;1752352;79;21822;-85
2023/01/15 14:56:39;;;;;;;104.47;32.40;;;;;;;2.53;80.13;100669.39;1738275;82;21229;-84
2023/01/15 14:59:56;;;;;;;94.80;32.78;;;;;;;2.68;79.46;100664.66;1744054;81;21813;-85
2023/01/15 15:03:03;;;;;;;86.55;32.50;;;;;;;2.52;80.05;100664.98;1754087;81;21201;-85
2023/01/15 15:06:14;;;;;;;104.43;38.45;;;;;;;2.44;80.32;100671.44;1753423;78;21196;-85
2023/01/15 15:09:31;;;;;;;129.38;46.58;;;;;;;2.46;80.48;100679.81;1739226;81;21954;-85
2023/01/15 15:13:06;;;;;;;187.43;56.25;;;;;;;2.39;80.98;100676.33;1735547;81;21214;-85
2023/01/15 15:16:33;;;;;;;170.00;47.90;;;;;;;2.59;80.68;100674.81;1744826;81;21276;-86
2023/01/15 15:19:49;;;;;;;147.60;44.65;;;;;;;2.69;80.40;100671.32;1751887;81;21223;-85
2023/01/15 15:22:58;;;;;;;152.78;43.73;;;;;;;2.74;79.91;100676.38;1717409;81;22154;-85
2023/01/15 15:26:10;;;;;;;134.20;39.08;;;;;;;2.79;79.76;100678.23;1745172;81;21264;-86
2023/01/15 15:29:21;;;;;;;124.07;40.55;;;;;;;2.82;79.80;100684.73;1755140;81;21204;-85
2023/01/15 15:32:30;;;;;;;149.23;43.87;;;;;;;2.79;79.36;100687.19;1776195;80;21216;-85
2023/01/15 15:35:39;;;;;;;;;;;;;;;2.66;79.74;100690.95;1750238;82;21764;-85